createdAt,value
2023-01-17T00:02:20.190Z,17.83
2023-01-17T00:05:06.202Z,18.55
2023-01-17T00:07:54.851Z,20.38
2023-01-17T00:10:27.783Z,19.33
2023-01-17T00:13:04.309Z,18.58
2023-01-17T00:15:34.643Z,18.85
2023-01-17T00:18:01.792Z,18.50
2023-01-17T00:20:51.284Z,18.17
2023-01-17T00:23:40.711Z,18.63
2023-01-17T00:26:15.145Z,17.45
2023-01-17T00:28:44.217Z,18.48
2023-01-17T00:31:15.543Z,19.27
2023-01-17T00:33:42.650Z,21.60
2023-01-17T00:36:10.910Z,18.23
2023-01-17T00:38:39.733Z,17.48
2023-01-17T00:41:10.484Z,23.85
2023-01-17T00:43:57.002Z,18.20
2023-01-17T00:46:43.133Z,18.75
2023-01-17T00:49:29.142Z,19.20
2023-01-17T00:52:15.009Z,19.42
2023-01-17T00:55:00.752Z,20.90
2023-01-17T00:57:48.159Z,20.98
2023-01-17T01:00:36.091Z,22.45
2023-01-17T01:03:30.796Z,32.08
2023-01-17T01:06:16.873Z,21.90
2023-01-17T01:09:02.679Z,26.50
2023-01-17T01:11:48.816Z,24.58
2023-01-17T01:14:34.947Z,29.85
2023-01-17T01:17:20.768Z,24.70
2023-01-17T01:20:06.665Z,26.88
2023-01-17T01:22:53.458Z,21.90
2023-01-17T01:25:39.292Z,20.55
2023-01-17T01:28:34.407Z,21.60
2023-01-17T01:31:25.119Z,20.80
2023-01-17T01:33:53.536Z,22.73
2023-01-17T01:36:21.506Z,36.03
2023-01-17T01:38:50.326Z,28.25
2023-01-17T01:41:17.965Z,25.38
2023-01-17T01:43:47.341Z,20.73
2023-01-17T01:46:38.652Z,26.55
2023-01-17T01:49:24.966Z,24.48
2023-01-17T01:52:00.900Z,27.13
2023-01-17T01:54:47.310Z,23.50
2023-01-17T01:57:18.641Z,21.02
2023-01-17T01:59:54.429Z,24.73
2023-01-17T02:02:21.779Z,22.40
2023-01-17T02:04:51.953Z,20.60
2023-01-17T02:07:36.751Z,23.40
2023-01-17T02:10:05.181Z,24.83
2023-01-17T02:12:32.358Z,31.65
2023-01-17T02:15:00.138Z,25.67
2023-01-17T02:17:43.346Z,30.20
2023-01-17T02:21:06.240Z,26.85
2023-01-17T02:24:24.410Z,22.25
2023-01-17T02:27:38.302Z,23.00
2023-01-17T02:30:33.250Z,26.90
2023-01-17T02:33:09.161Z,24.75
2023-01-17T02:35:57.332Z,20.85
2023-01-17T02:38:53.748Z,20.80
2023-01-17T02:41:33.540Z,23.25
2023-01-17T02:44:03.280Z,22.52
2023-01-17T02:46:35.808Z,24.55
2023-01-17T02:49:02.881Z,22.98
2023-01-17T02:52:17.524Z,23.35
2023-01-17T02:55:20.603Z,21.35
2023-01-17T02:58:30.138Z,20.70
2023-01-17T03:01:21.318Z,20.90
2023-01-17T03:04:14.198Z,25.00
2023-01-17T03:06:46.609Z,22.70
2023-01-17T03:09:16.244Z,24.23
2023-01-17T03:11:44.470Z,23.38
2023-01-17T03:14:12.532Z,21.63
2023-01-17T03:16:40.341Z,22.55
2023-01-17T03:19:09.818Z,23.67
2023-01-17T03:21:36.950Z,21.75
2023-01-17T03:24:04.475Z,24.38
2023-01-17T03:26:31.880Z,22.80
2023-01-17T03:28:59.086Z,22.70
2023-01-17T03:31:28.541Z,23.90
2023-01-17T03:33:55.591Z,23.63
2023-01-17T03:36:22.648Z,22.63
2023-01-17T03:38:49.749Z,22.30
2023-01-17T03:41:17.097Z,20.13
2023-01-17T03:43:46.550Z,24.83
2023-01-17T03:46:25.827Z,19.95
2023-01-17T03:48:55.626Z,21.15
2023-01-17T03:51:25.718Z,20.88
2023-01-17T03:53:52.839Z,21.25
2023-01-17T03:56:22.395Z,25.10
2023-01-17T03:58:49.705Z,26.17
2023-01-17T04:01:16.874Z,20.52
2023-01-17T04:03:44.083Z,22.95
2023-01-17T04:06:13.494Z,23.98
2023-01-17T04:08:40.565Z,26.67
2023-01-17T04:11:07.877Z,25.70
2023-01-17T04:13:37.199Z,24.17
2023-01-17T04:16:04.875Z,27.65
2023-01-17T04:18:34.372Z,27.00
2023-01-17T04:21:01.555Z,26.77
2023-01-17T04:23:28.742Z,32.78
2023-01-17T04:25:58.470Z,30.85
2023-01-17T04:28:25.669Z,29.88
2023-01-17T04:30:52.968Z,28.90
2023-01-17T04:33:20.174Z,31.90
2023-01-17T04:35:47.301Z,31.63
2023-01-17T04:38:14.358Z,28.95
2023-01-17T04:40:42.542Z,29.30
2023-01-17T04:43:09.665Z,30.88
2023-01-17T04:45:38.808Z,31.60
2023-01-17T04:48:06.861Z,29.05
2023-01-17T04:50:36.898Z,27.98
2023-01-17T04:53:04.092Z,27.85
2023-01-17T04:55:31.904Z,29.55
2023-01-17T04:57:58.976Z,28.25
2023-01-17T05:00:26.137Z,26.67
2023-01-17T05:02:53.372Z,29.70
2023-01-17T05:05:20.523Z,31.38
2023-01-17T05:07:58.128Z,25.27
2023-01-17T05:10:26.163Z,30.10
2023-01-17T05:12:58.643Z,26.15
2023-01-17T05:15:27.135Z,27.60
2023-01-17T05:17:54.844Z,27.75
2023-01-17T05:20:25.146Z,30.67
2023-01-17T05:22:58.610Z,26.35
2023-01-17T05:25:30.166Z,26.60
2023-01-17T05:28:00.362Z,26.15
2023-01-17T05:30:35.335Z,28.20
2023-01-17T05:33:02.489Z,28.13
2023-01-17T05:35:35.291Z,26.08
2023-01-17T05:38:02.479Z,27.67
2023-01-17T05:40:32.255Z,26.67
2023-01-17T05:43:03.946Z,28.02
2023-01-17T05:45:33.343Z,26.52
2023-01-17T05:48:01.092Z,29.55
2023-01-17T05:50:38.734Z,25.65
2023-01-17T05:53:09.917Z,25.95
2023-01-17T05:55:38.594Z,26.52
2023-01-17T05:58:07.084Z,25.98
2023-01-17T06:00:34.986Z,24.52
2023-01-17T06:03:04.609Z,23.83
2023-01-17T06:05:32.382Z,25.15
2023-01-17T06:08:04.513Z,26.65
2023-01-17T06:10:32.248Z,22.13
2023-01-17T06:13:12.649Z,28.10
2023-01-17T06:15:40.170Z,25.73
2023-01-17T06:18:17.024Z,26.38
2023-01-17T06:20:52.224Z,26.27
2023-01-17T06:23:19.350Z,27.50
2023-01-17T06:25:50.812Z,25.98
2023-01-17T06:28:23.569Z,26.48
2023-01-17T06:30:53.288Z,29.73
2023-01-17T06:33:20.582Z,28.25
2023-01-17T06:35:50.480Z,28.98
2023-01-17T06:38:17.939Z,29.27
2023-01-17T06:40:45.105Z,26.60
2023-01-17T06:43:12.170Z,27.90
2023-01-17T06:45:39.376Z,29.17
2023-01-17T06:48:06.958Z,29.20
2023-01-17T06:50:34.768Z,31.88
2023-01-17T06:53:05.263Z,30.88
2023-01-17T06:55:34.095Z,28.80
2023-01-17T06:58:03.190Z,37.35
2023-01-17T07:00:31.884Z,28.90
2023-01-17T07:02:59.018Z,26.98
2023-01-17T07:05:28.951Z,29.38
2023-01-17T07:07:57.472Z,33.25
2023-01-17T07:10:24.590Z,31.58
2023-01-17T07:12:51.714Z,30.42
2023-01-17T07:15:21.401Z,28.38
2023-01-17T07:17:48.500Z,30.25
2023-01-17T07:20:16.387Z,33.55
2023-01-17T07:22:47.047Z,34.60
2023-01-17T07:25:14.284Z,32.97
2023-01-17T07:27:43.729Z,28.77
2023-01-17T07:30:11.787Z,32.30
2023-01-17T07:32:39.395Z,33.17
2023-01-17T07:35:07.543Z,31.55
2023-01-17T07:37:34.830Z,31.85
2023-01-17T07:40:02.586Z,33.65
2023-01-17T07:42:31.900Z,29.70
2023-01-17T07:45:00.678Z,37.58
2023-01-17T07:47:27.896Z,31.25
2023-01-17T07:49:55.081Z,35.63
2023-01-17T07:52:22.190Z,31.90
2023-01-17T07:54:49.398Z,37.92
2023-01-17T07:57:16.611Z,39.63
2023-01-17T07:59:43.731Z,35.55
2023-01-17T08:02:22.894Z,44.50
2023-01-17T08:04:50.430Z,35.05
2023-01-17T08:07:17.539Z,33.60
2023-01-17T08:09:49.797Z,33.38
2023-01-17T08:12:18.595Z,38.45
2023-01-17T08:14:45.788Z,32.45
2023-01-17T08:17:16.470Z,30.80
2023-01-17T08:19:46.105Z,30.10
2023-01-17T08:22:16.114Z,30.52
2023-01-17T08:27:33.411Z,31.75
2023-01-17T08:30:01.372Z,30.90
2023-01-17T08:32:28.505Z,32.92
2023-01-17T08:34:57.298Z,29.65
2023-01-17T08:37:24.984Z,34.45
2023-01-17T08:39:52.117Z,30.25
2023-01-17T08:42:19.326Z,31.27
2023-01-17T08:44:46.424Z,29.20
2023-01-17T08:47:13.550Z,35.25
2023-01-17T08:49:44.081Z,29.25
2023-01-17T08:52:14.574Z,26.17
2023-01-17T08:54:41.658Z,29.95
2023-01-17T08:57:10.485Z,36.13
2023-01-17T08:59:37.587Z,30.73
2023-01-17T09:02:14.798Z,30.70
2023-01-17T09:04:50.011Z,26.63
2023-01-17T09:07:19.261Z,28.58
2023-01-17T09:09:46.773Z,29.35
2023-01-17T09:12:13.860Z,34.13
2023-01-17T09:14:41.131Z,28.75
2023-01-17T09:17:08.346Z,37.75
2023-01-17T09:19:35.608Z,34.00
2023-01-17T09:22:06.605Z,33.78
2023-01-17T09:24:33.922Z,30.15
2023-01-17T09:27:01.393Z,26.08
2023-01-17T09:29:28.562Z,29.27
2023-01-17T09:31:57.036Z,31.13
2023-01-17T09:34:30.618Z,37.65
2023-01-17T09:36:58.233Z,29.10
2023-01-17T09:39:25.716Z,29.42
2023-01-17T09:42:07.611Z,21.27
2023-01-17T09:44:51.688Z,26.40
2023-01-17T09:47:44.047Z,25.75
2023-01-17T09:50:50.525Z,29.48
2023-01-17T09:53:22.705Z,22.70
2023-01-17T09:56:14.556Z,20.38
2023-01-17T09:59:01.598Z,25.98
2023-01-17T10:01:40.096Z,17.35
2023-01-17T10:04:36.748Z,19.92
2023-01-17T10:07:36.353Z,18.42
2023-01-17T10:10:52.038Z,16.58
2023-01-17T10:13:46.141Z,19.50
2023-01-17T10:16:55.602Z,25.35
2023-01-17T10:20:21.996Z,20.25
2023-01-17T10:23:31.978Z,12.77
2023-01-17T10:26:12.721Z,19.88
2023-01-17T10:28:53.092Z,17.95
2023-01-17T10:31:34.050Z,12.50
2023-01-17T10:34:18.719Z,15.27
2023-01-17T10:36:54.056Z,15.02
2023-01-17T10:39:28.666Z,13.60
2023-01-17T10:42:21.604Z,17.70
2023-01-17T10:44:51.481Z,13.32
2023-01-17T10:47:25.352Z,15.95
2023-01-17T10:49:55.078Z,13.23
2023-01-17T10:52:57.870Z,19.13
2023-01-17T10:57:56.004Z,12.45
2023-01-17T11:01:04.380Z,16.08
2023-01-17T11:03:32.192Z,17.25
2023-01-17T11:06:29.172Z,14.73
2023-01-17T11:09:02.285Z,14.35
2023-01-17T11:11:35.426Z,15.50
2023-01-17T11:14:17.008Z,14.05
2023-01-17T11:16:59.786Z,12.17
2023-01-17T11:19:35.957Z,10.15
2023-01-17T11:22:06.915Z,10.68
2023-01-17T11:24:45.785Z,11.40
2023-01-17T11:27:34.038Z,12.10
2023-01-17T11:30:20.581Z,11.38
2023-01-17T11:33:32.468Z,10.85
2023-01-17T11:35:59.786Z,12.40
2023-01-17T11:38:26.967Z,8.80
2023-01-17T11:41:14.147Z,7.88
2023-01-17T11:44:00.973Z,10.15
2023-01-17T11:46:30.296Z,12.90
2023-01-17T11:49:01.047Z,14.95
2023-01-17T11:51:35.350Z,7.35
2023-01-17T11:54:30.147Z,7.80
2023-01-17T11:57:02.347Z,8.40
2023-01-17T12:02:31.974Z,8.63
2023-01-17T12:05:05.007Z,7.97
2023-01-17T12:08:16.240Z,10.20
2023-01-17T12:11:22.098Z,9.70
2023-01-17T12:15:06.935Z,7.80
2023-01-17T12:17:59.748Z,7.22
2023-01-17T12:20:52.891Z,10.60
2023-01-17T12:23:42.058Z,7.88
2023-01-17T12:26:24.602Z,10.40
2023-01-17T12:29:25.100Z,6.90
2023-01-17T12:32:38.248Z,8.68
2023-01-17T12:35:10.319Z,7.00
2023-01-17T12:37:41.865Z,7.65
2023-01-17T12:40:49.649Z,9.88
2023-01-17T12:43:18.752Z,13.35
2023-01-17T12:45:49.746Z,9.43
2023-01-17T12:48:22.078Z,9.35
2023-01-17T12:50:58.542Z,7.15
2023-01-17T12:53:47.107Z,10.35
2023-01-17T12:56:32.662Z,9.73
2023-01-17T13:02:36.568Z,10.35
2023-01-17T13:05:23.872Z,9.48
2023-01-17T13:08:05.547Z,8.77
2023-01-17T13:11:09.382Z,17.92
2023-01-17T13:13:36.847Z,12.20
2023-01-17T13:16:21.800Z,7.30
2023-01-17T13:18:51.702Z,14.98
2023-01-17T13:21:27.656Z,8.80
2023-01-17T13:23:59.214Z,8.30
2023-01-17T13:26:55.809Z,8.60
2023-01-17T13:29:46.364Z,9.10
2023-01-17T13:32:47.384Z,7.97
2023-01-17T13:35:38.390Z,13.60
2023-01-17T13:38:36.117Z,6.53
2023-01-17T13:41:36.959Z,13.35
2023-01-17T13:44:23.142Z,12.23
2023-01-17T13:47:17.231Z,9.75
2023-01-17T13:49:49.779Z,7.88
2023-01-17T13:52:19.654Z,9.90
2023-01-17T13:55:04.272Z,7.57
2023-01-17T13:57:48.116Z,10.05
2023-01-17T14:00:21.524Z,11.75
2023-01-17T14:02:53.320Z,13.68
2023-01-17T14:05:41.707Z,13.05
2023-01-17T14:08:21.966Z,13.63
2023-01-17T14:10:53.540Z,11.93
2023-01-17T14:13:40.043Z,14.45
2023-01-17T14:16:25.516Z,17.27
2023-01-17T14:18:54.347Z,14.55
2023-01-17T14:21:29.125Z,13.23
2023-01-17T14:24:10.655Z,13.80
2023-01-17T14:26:59.478Z,17.33
2023-01-17T14:29:59.326Z,19.25
2023-01-17T14:32:37.859Z,28.67
2023-01-17T14:35:09.296Z,34.85
2023-01-17T14:37:54.700Z,25.33
2023-01-17T14:40:30.857Z,25.15
2023-01-17T14:43:15.855Z,28.60
2023-01-17T14:45:48.400Z,28.58
2023-01-17T14:48:21.711Z,22.00
2023-01-17T14:50:54.848Z,22.23
2023-01-17T14:53:32.037Z,32.63
2023-01-17T14:56:16.931Z,36.75
2023-01-17T14:58:46.723Z,43.65
2023-01-17T15:01:18.752Z,33.38
2023-01-17T15:03:49.506Z,31.95
2023-01-17T15:06:49.063Z,27.33
2023-01-17T15:09:24.150Z,24.33
2023-01-17T15:11:55.029Z,27.27
2023-01-17T15:14:29.072Z,28.73
2023-01-17T15:16:58.652Z,20.48
2023-01-17T15:19:25.746Z,33.47
2023-01-17T15:21:54.306Z,31.65
2023-01-17T15:24:34.516Z,28.38
2023-01-17T15:27:02.372Z,30.98
2023-01-17T15:29:33.720Z,27.40
2023-01-17T15:32:04.166Z,26.20
2023-01-17T15:34:38.876Z,26.15
2023-01-17T15:37:21.489Z,29.27
2023-01-17T15:39:49.322Z,28.15
2023-01-17T15:42:28.549Z,31.35
2023-01-17T15:45:00.922Z,27.35
2023-01-17T15:47:39.146Z,28.35
2023-01-17T15:50:39.833Z,33.25
2023-01-17T15:53:32.619Z,28.67
2023-01-17T15:56:00.536Z,33.42
2023-01-17T15:58:30.341Z,35.30
2023-01-17T16:00:58.082Z,38.88
2023-01-17T16:03:31.002Z,32.85
2023-01-17T16:06:01.021Z,28.33
2023-01-17T16:08:39.661Z,26.80
2023-01-17T16:11:10.678Z,33.53
2023-01-17T16:13:47.312Z,33.15
2023-01-17T16:16:23.429Z,40.13
2023-01-17T16:19:03.486Z,41.67
2023-01-17T16:21:32.060Z,42.63
2023-01-17T16:24:00.644Z,36.63
2023-01-17T16:26:29.444Z,35.00
2023-01-17T16:28:56.871Z,33.95
2023-01-17T16:31:24.156Z,31.27
2023-01-17T16:33:52.037Z,38.20
2023-01-17T16:36:20.917Z,32.38
2023-01-17T16:38:51.526Z,31.52
2023-01-17T16:41:19.713Z,25.73
2023-01-17T16:43:56.233Z,27.08
2023-01-17T16:46:23.690Z,21.13
2023-01-17T16:48:53.130Z,19.98
2023-01-17T16:51:20.276Z,17.83
2023-01-17T16:53:47.477Z,16.25
2023-01-17T16:56:17.881Z,17.85
2023-01-17T16:58:45.079Z,16.45
2023-01-17T17:01:17.925Z,13.52
2023-01-17T17:03:47.608Z,14.40
2023-01-17T17:06:17.159Z,11.45
2023-01-17T17:08:45.070Z,9.45
2023-01-17T17:11:17.843Z,10.98
2023-01-17T17:13:47.817Z,12.55
2023-01-17T17:16:19.526Z,16.52
2023-01-17T17:18:54.584Z,13.17
2023-01-17T17:21:21.824Z,13.43
2023-01-17T17:23:56.750Z,11.82
2023-01-17T17:26:27.318Z,14.75
2023-01-17T17:28:54.845Z,10.50
2023-01-17T17:31:22.096Z,10.85
2023-01-17T17:33:51.907Z,12.43
2023-01-17T17:36:21.490Z,13.00
2023-01-17T17:38:51.617Z,14.60
2023-01-17T17:41:22.840Z,17.55
2023-01-17T17:43:51.210Z,17.15
2023-01-17T17:46:20.803Z,15.32
2023-01-17T17:48:53.381Z,14.73
2023-01-17T17:51:53.027Z,14.75
2023-01-17T17:54:22.199Z,19.73
2023-01-17T17:56:49.427Z,17.95
2023-01-17T17:59:19.883Z,20.30
2023-01-17T18:01:50.370Z,24.90
2023-01-17T18:04:18.579Z,22.27
2023-01-17T18:06:48.366Z,26.75
2023-01-17T18:09:16.003Z,21.95
2023-01-17T18:11:44.540Z,24.10
2023-01-17T18:14:15.254Z,23.60
2023-01-17T18:16:44.912Z,26.00
2023-01-17T18:19:22.227Z,29.73
2023-01-17T18:21:52.829Z,30.00
2023-01-17T18:24:23.402Z,35.75
2023-01-17T18:26:59.228Z,34.22
2023-01-17T18:29:27.738Z,35.92
2023-01-17T18:31:57.597Z,33.85
2023-01-17T18:34:29.336Z,35.88
2023-01-17T18:36:59.428Z,33.83
2023-01-17T18:39:29.439Z,30.67
2023-01-17T18:41:57.582Z,36.92
2023-01-17T18:44:30.177Z,42.83
2023-01-17T18:47:04.517Z,55.65
2023-01-17T18:49:34.115Z,51.55
2023-01-17T18:52:03.841Z,55.60
2023-01-17T18:54:33.457Z,54.72
2023-01-17T18:57:00.607Z,50.40
2023-01-17T18:59:27.766Z,47.72
2023-01-17T19:01:55.226Z,49.08
2023-01-17T19:04:22.512Z,43.35
2023-01-17T19:06:49.660Z,47.40
2023-01-17T19:09:17.410Z,39.10
2023-01-17T19:11:45.482Z,46.35
2023-01-17T19:14:15.872Z,35.50
2023-01-17T19:16:43.315Z,37.25
2023-01-17T19:19:14.813Z,41.05
2023-01-17T19:21:42.013Z,43.13
2023-01-17T19:24:13.242Z,41.22
2023-01-17T19:26:41.225Z,43.63
2023-01-17T19:29:10.774Z,37.50
2023-01-17T19:31:42.508Z,43.00
2023-01-17T19:34:10.472Z,40.55
2023-01-17T19:36:38.734Z,42.28
2023-01-17T19:39:09.591Z,40.22
2023-01-17T19:41:42.815Z,38.22
2023-01-17T19:44:12.742Z,35.65
2023-01-17T19:46:39.969Z,38.28
2023-01-17T19:49:08.771Z,44.10
2023-01-17T19:51:36.364Z,55.60
2023-01-17T19:54:05.197Z,48.33
2023-01-17T19:56:32.602Z,47.75
2023-01-17T19:59:02.414Z,45.60
2023-01-17T20:01:32.531Z,48.33
2023-01-17T20:04:04.207Z,49.10
2023-01-17T20:06:35.590Z,55.53
2023-01-17T20:09:06.700Z,46.42
2023-01-17T20:11:34.496Z,48.58
2023-01-17T20:14:05.668Z,60.05
2023-01-17T20:16:39.217Z,71.97
2023-01-17T20:19:06.392Z,66.57
2023-01-17T20:21:34.506Z,68.88
2023-01-17T20:24:04.889Z,62.55
2023-01-17T20:26:35.209Z,60.85
2023-01-17T20:29:12.464Z,62.97
2023-01-17T20:31:44.126Z,59.90
2023-01-17T20:34:14.499Z,65.00
2023-01-17T20:36:42.232Z,72.40
2023-01-17T20:39:12.506Z,62.08
2023-01-17T20:41:42.436Z,61.22
2023-01-17T20:44:16.657Z,59.80
2023-01-17T20:46:47.872Z,73.60
2023-01-17T20:49:19.180Z,62.85
2023-01-17T20:51:47.343Z,41.43
2023-01-17T20:54:17.768Z,59.08
2023-01-17T20:56:47.996Z,55.42
2023-01-17T20:59:22.351Z,57.80
2023-01-17T21:01:52.212Z,59.95
2023-01-17T21:04:25.728Z,61.38
2023-01-17T21:06:54.810Z,65.13
2023-01-17T21:09:25.011Z,70.40
2023-01-17T21:11:52.921Z,78.15
2023-01-17T21:14:21.809Z,72.43
2023-01-17T21:16:51.570Z,80.35
2023-01-17T21:19:20.516Z,89.00
2023-01-17T21:21:51.240Z,82.28
2023-01-17T21:24:19.652Z,76.25
2023-01-17T21:26:47.383Z,82.28
2023-01-17T21:29:16.230Z,80.20
2023-01-17T21:31:43.709Z,87.80
2023-01-17T21:34:14.691Z,83.13
2023-01-17T21:36:43.345Z,86.18
2023-01-17T21:39:15.899Z,77.05
2023-01-17T21:41:49.651Z,88.57
2023-01-17T21:44:21.042Z,96.15
2023-01-17T21:46:49.361Z,106.10
2023-01-17T21:49:17.261Z,114.55
2023-01-17T21:51:53.813Z,125.25
2023-01-17T21:54:49.400Z,124.03
2023-01-17T21:57:40.326Z,135.85
2023-01-17T22:00:14.536Z,149.73
2023-01-17T22:02:45.886Z,158.15
2023-01-17T22:05:16.457Z,122.20
2023-01-17T22:08:04.962Z,152.23
2023-01-17T22:10:32.789Z,158.02
2023-01-17T22:13:02.233Z,117.32
2023-01-17T22:15:29.392Z,102.88
2023-01-17T22:17:59.323Z,106.97
2023-01-17T22:20:29.088Z,101.22
2023-01-17T22:22:56.705Z,101.85
2023-01-17T22:25:26.460Z,93.30
2023-01-17T22:27:56.319Z,101.82
2023-01-17T22:30:26.063Z,116.20
2023-01-17T22:32:55.241Z,176.43
2023-01-17T22:35:23.241Z,209.13
2023-01-17T22:37:52.741Z,148.20
2023-01-17T22:40:22.424Z,125.03
2023-01-17T22:42:49.486Z,105.20
2023-01-17T22:45:17.464Z,114.40
2023-01-17T22:47:44.762Z,115.88
2023-01-17T22:50:12.360Z,117.75
2023-01-17T22:52:39.418Z,114.38
2023-01-17T22:55:06.978Z,122.68
2023-01-17T22:57:34.644Z,119.40
2023-01-17T23:00:01.818Z,111.40
2023-01-17T23:02:31.481Z,106.15
2023-01-17T23:04:58.702Z,94.47
2023-01-17T23:07:31.084Z,89.97
2023-01-17T23:09:58.163Z,83.20
2023-01-17T23:12:25.186Z,84.63
2023-01-17T23:15:11.050Z,76.82
2023-01-17T23:17:56.821Z,82.95
2023-01-17T23:20:24.015Z,81.15
2023-01-17T23:22:51.890Z,81.22
2023-01-17T23:25:19.192Z,72.35
2023-01-17T23:28:05.637Z,74.03
2023-01-17T23:30:40.507Z,78.72
2023-01-17T23:33:14.602Z,146.00
2023-01-17T23:35:45.010Z,187.88
2023-01-17T23:38:25.945Z,145.32
2023-01-17T23:41:22.056Z,142.27
2023-01-17T23:43:58.182Z,140.45
2023-01-17T23:46:27.217Z,117.30
2023-01-17T23:48:55.199Z,130.30
2023-01-17T23:51:22.491Z,124.53
2023-01-17T23:53:51.013Z,123.95
2023-01-17T23:56:23.706Z,127.20
2023-01-17T23:58:51.098Z,120.68
